Latest Weather Observations for East Sale

IDV60801

Issued at 8:02 pm EST Wednesday 23 August 2017 (issued every 30 minutes, with the page automatically refreshed every 10 minutes)

About weather observations | Map of weather stations | Latest weather observations for VIC | Other Formats
Station Details ID: 085072 Name: EAST SALE AIRPORT Lat: -38.12 Lon: 147.13 Height: 4.6 m
Data from the previous 72 hours. | See also: Recent months at East Sale
Date/Time
EST
Temp
°C
App
Temp
°C
Dew
Point
°C
Rel
Hum
%
Delta-T
°C
Wind Press
QNH
hPa
Press
MSL
hPa
Rain since
9am
mm
Dir  Spd
km/h
Gust
km/h
Spd
kts
Gust
kts
23/08:00pm 9.6 6.6 9.3 98 0.1 WSW 15 22 8 12 1018.2 1018.2 0.2
23/07:30pm 9.9 5.6 9.3 96 0.3 SW 22 30 12 16 1017.7 1017.7 0.0
23/07:05pm 10.5 5.2 9.7 95 0.4 W 28 46 15 25 1017.2 1017.2 0.0
23/07:00pm 10.6 4.5 9.8 95 0.4 W 32 46 17 25 1017.0 1017.0 0.0
23/06:52pm 11.1 6.5 9.5 90 0.8 NW 24 50 13 27 1016.9 1016.9 0.0
23/06:30pm 13.7 9.1 5.8 59 3.7 NW 19 22 10 12 1015.8 1015.8 0.0
23/06:00pm 13.6 8.9 6.0 60 3.6 NW 20 24 11 13 1015.3 1015.3 0.0
23/05:30pm 13.7 9.5 5.6 58 3.8 NNW 17 22 9 12 1015.1 1015.1 0.0
23/05:00pm 15.1 10.4 5.9 54 4.4 NW 20 30 11 16 1015.1 1015.1 0.0
23/04:30pm 15.3 11.2 6.1 54 4.4 NW 17 28 9 15 1015.0 1015.0 0.0
23/04:00pm 15.6 11.5 6.3 54 4.5 NW 17 22 9 12 1015.0 1015.0 0.0
23/03:30pm 15.4 10.8 5.6 52 4.7 WNW 19 28 10 15 1015.1 1015.1 0.0
23/03:00pm 16.2 12.4 5.8 50 5.0 WNW 15 20 8 11 1015.3 1015.3 0.0
23/02:30pm 15.2 10.1 6.2 55 4.3 WNW 22 37 12 20 1015.7 1015.7 0.0
23/02:00pm 16.1 11.8 5.4 49 5.1 NW 17 24 9 13 1015.7 1015.7 0.0
23/01:30pm 16.6 - 5.6 48 5.3 - - - - - 1015.8 1015.8 0.0
23/01:00pm 16.2 12.5 6.3 52 4.8 WNW 15 22 8 12 1016.2 1016.2 0.0
23/12:30pm 16.1 11.9 5.7 50 5.0 WNW 17 22 9 12 1016.4 1016.4 0.0
23/12:00pm 16.7 10.6 5.0 46 5.6 NW 26 37 14 20 1016.8 1016.8 0.0
23/11:30am 16.5 10.5 5.2 47 5.4 NW 26 35 14 19 1017.3 1017.3 0.0
23/11:00am 15.4 9.8 5.6 52 4.7 NW 24 33 13 18 1017.5 1017.5 0.0
23/10:30am 15.6 10.7 6.9 56 4.3 NW 22 30 12 16 1017.6 1017.6 0.0
23/10:00am 14.8 10.9 6.9 59 3.8 NW 17 20 9 11 1017.9 1017.9 0.0
23/09:30am 12.8 10.4 8.5 75 2.1 NW 11 15 6 8 1018.2 1018.2 0.0
23/09:00am 10.7 8.2 8.1 84 1.3 N 11 13 6 7 1018.1 1018.1 0.0
23/08:30am 8.5 5.8 7.3 92 0.6 NNW 11 13 6 7 1018.4 1018.4 0.0
23/08:00am 5.5 2.8 5.5 100 0.0 NNW 9 11 5 6 1018.5 1018.5 0.0
23/07:30am 2.0 -1.4 2.0 100 0.0 NNW 9 11 5 6 1018.6 1018.6 0.0
23/07:00am 2.2 -0.8 2.2 100 0.0 NW 7 9 4 5 1018.4 1018.4 0.0
23/06:30am 2.9 0.2 2.9 100 0.0 NNW 6 7 3 4 1018.3 1018.3 0.0
23/06:00am 3.0 0.4 3.0 100 0.0 NW 6 7 3 4 1018.2 1018.2 0.0
23/05:30am 3.6 0.5 3.6 100 0.0 NW 9 11 5 6 1018.2 1018.2 0.0
23/05:00am 3.6 1.1 3.6 100 0.0 NW 6 9 3 5 1018.1 1018.1 0.0
23/04:30am 4.4 1.1 4.4 100 0.0 WNW 11 13 6 7 1018.2 1018.2 0.0
23/04:00am 5.0 1.8 4.9 99 0.0 WNW 11 15 6 8 1018.1 1018.1 0.0
23/03:30am 4.4 1.5 4.4 100 0.0 W 9 11 5 6 1018.2 1018.2 0.0
23/03:00am 3.8 1.1 3.5 98 0.1 NW 7 9 4 5 1018.2 1018.2 0.0
23/02:30am 5.5 1.9 4.9 96 0.3 NW 13 15 7 8 1018.4 1018.4 0.0
23/02:00am 4.6 1.3 4.3 98 0.1 NW 11 11 6 6 1018.6 1018.6 0.0
23/01:30am 5.7 2.4 4.7 93 0.4 WNW 11 13 6 7 1018.8 1018.8 0.0
23/01:00am 8.4 5.2 5.3 81 1.4 NNW 11 13 6 7 1018.6 1018.6 0.0
23/12:30am 6.6 4.1 6.5 99 0.0 NW 9 11 5 6 1018.9 1018.9 0.0
23/12:00am 6.4 3.8 6.3 99 0.0 NW 9 11 5 6 1019.0 1019.0 0.0
 
Date/Time
EST
Temp
°C
App
Temp
°C
Dew
Point
°C
Rel
Hum
%
Delta-T
°C
Wind Press
QNH
hPa
Press
MSL
hPa
Rain since
9am
mm
Dir  Spd
km/h
Gust
km/h
Spd
kts
Gust
kts
22/11:30pm 7.2 5.3 6.9 98 0.1 WNW 6 9 3 5 1019.1 1019.1 0.0
22/11:00pm 8.0 7.3 7.1 94 0.4 CALM 0 0 0 0 1019.3 1019.3 0.0
22/10:30pm 8.1 6.4 7.5 96 0.3 NW 6 6 3 3 1019.6 1019.6 0.0
22/10:00pm 7.5 5.5 6.9 96 0.3 NNW 7 9 4 5 1019.7 1019.7 0.0
22/09:30pm 7.2 5.0 6.1 93 0.5 NNW 7 9 4 5 1019.7 1019.7 0.0
22/09:00pm 8.8 6.7 6.6 86 1.0 N 7 9 4 5 1019.5 1019.5 0.0
22/08:30pm 8.5 6.5 7.3 92 0.6 NNE 7 9 4 5 1019.5 1019.5 0.0
22/08:00pm 9.1 7.4 7.4 89 0.8 NE 6 7 3 4 1019.4 1019.4 0.0
22/07:30pm 10.1 8.5 7.9 86 1.1 NNE 6 9 3 5 1019.2 1019.2 0.0
22/07:00pm 10.6 8.4 7.7 82 1.4 ENE 9 13 5 7 1018.9 1018.9 0.0
22/06:30pm 11.0 10.2 6.6 74 2.1 CALM 0 4 0 2 1018.6 1018.6 0.0
22/06:00pm 12.1 9.9 6.2 67 2.8 WSW 7 9 4 5 1018.4 1018.4 0.0
22/05:30pm 13.5 10.9 6.1 61 3.5 W 9 11 5 6 1018.1 1018.1 0.0
22/05:00pm 15.3 12.3 6.1 54 4.4 WSW 11 15 6 8 1017.8 1017.8 0.0
22/04:30pm 16.0 11.8 5.9 51 4.9 WSW 17 22 9 12 1017.6 1017.6 0.0
22/04:00pm 16.4 12.4 6.5 52 4.8 W 17 22 9 12 1017.4 1017.4 0.0
22/03:30pm 16.4 12.6 5.7 49 5.2 W 15 22 8 12 1017.3 1017.3 0.0
22/03:00pm 16.7 12.2 6.2 50 5.1 W 19 30 10 16 1017.2 1017.2 0.0
22/02:30pm 16.6 12.2 6.4 51 5.0 WSW 19 28 10 15 1017.2 1017.2 0.0
22/02:00pm 16.3 12.1 5.9 50 5.0 SW 17 28 9 15 1017.3 1017.3 0.0
22/01:30pm 15.7 11.1 6.7 55 4.4 WSW 20 26 11 14 1017.6 1017.6 0.0
22/01:00pm 15.5 11.2 7.0 57 4.2 WSW 19 26 10 14 1017.7 1017.7 0.0
22/12:30pm 15.0 10.5 6.3 56 4.2 WSW 19 26 10 14 1018.1 1018.1 0.0
22/12:00pm 15.0 11.3 6.3 56 4.2 W 15 24 8 13 1018.6 1018.6 0.0
22/11:30am 14.7 11.6 5.5 54 4.4 WNW 11 15 6 8 1018.9 1018.9 0.0
22/11:00am 14.0 11.5 6.6 61 3.6 WNW 9 13 5 7 1019.1 1019.1 0.0
22/10:30am 12.1 9.6 6.6 69 2.6 WNW 9 13 5 7 1019.3 1019.3 0.0
22/10:00am 11.1 7.8 6.5 73 2.2 WNW 13 15 7 8 1019.4 1019.4 0.0
22/09:30am 9.9 - 7.3 84 1.2 - - - - - 1019.4 1019.4 0.0
22/09:00am 8.1 - 6.9 92 0.6 - - - - - - - 0.0
22/08:30am 6.7 4.2 6.6 99 0.0 NW 9 13 5 7 1019.4 1019.4 0.0
22/08:00am 4.8 1.9 4.8 100 0.0 NW 9 13 5 7 1019.3 1019.3 0.0
22/07:30am 3.3 0.5 3.3 100 0.0 WNW 7 9 4 5 1019.1 1019.1 0.0
22/07:00am 2.8 -0.1 2.8 100 0.0 WNW 7 11 4 6 1018.8 1018.8 0.0
22/06:30am 2.5 -0.4 2.5 100 0.0 WNW 7 11 4 6 1018.3 1018.3 0.0
22/06:00am 3.2 -0.7 3.2 100 0.0 WNW 13 17 7 9 1018.1 1018.1 0.0
22/05:30am 3.0 -0.6 3.0 100 0.0 NW 11 15 6 8 1017.7 1017.7 0.0
22/05:00am 4.1 0.3 4.0 99 0.0 NW 13 15 7 8 1017.5 1017.5 0.0
22/04:30am 4.5 0.8 4.4 99 0.0 NW 13 13 7 7 1017.2 1017.2 0.0
22/04:00am 5.2 1.6 5.1 99 0.0 NNW 13 13 7 7 1016.9 1016.9 0.0
22/03:30am 5.2 2.3 4.6 96 0.3 WNW 9 13 5 7 1016.8 1016.8 0.0
22/03:00am 6.1 3.4 5.7 97 0.2 NW 9 13 5 7 1016.8 1016.8 0.0
22/02:30am 5.7 3.3 5.3 97 0.2 WNW 7 11 4 6 1017.0 1017.0 0.0
22/02:00am 5.6 4.5 5.2 97 0.2 CALM 0 0 0 0 1017.1 1017.1 0.0
22/01:30am 5.8 4.7 5.2 96 0.3 CALM 0 0 0 0 1017.0 1017.0 0.0
22/01:00am 5.7 4.6 5.0 95 0.3 CALM 0 0 0 0 1017.0 1017.0 0.0
22/12:30am 5.8 3.8 4.6 92 0.5 W 4 6 2 3 1017.2 1017.2 0.0
22/12:00am 5.5 3.0 4.0 90 0.6 NW 6 7 3 4 1017.2 1017.2 0.0
 
Date/Time
EST
Temp
°C
App
Temp
°C
Dew
Point
°C
Rel
Hum
%
Delta-T
°C
Wind Press
QNH
hPa
Press
MSL
hPa
Rain since
9am
mm
Dir  Spd
km/h
Gust
km/h
Spd
kts
Gust
kts
21/11:30pm 6.0 4.2 3.5 84 1.0 WNW 2 6 1 3 1017.2 1017.2 0.0
21/11:00pm 6.5 3.8 3.8 83 1.1 NW 7 9 4 5 1017.4 1017.4 0.0
21/10:30pm 7.0 4.0 4.1 82 1.2 NNW 9 9 5 5 1017.4 1017.4 0.0
21/10:00pm 7.6 5.0 4.2 79 1.5 NNW 7 9 4 5 1017.4 1017.4 0.0
21/09:30pm 8.5 5.9 4.3 75 1.8 N 7 9 4 5 1017.6 1017.6 0.0
21/09:00pm 8.1 5.6 4.7 79 1.5 NNE 7 11 4 6 1017.4 1017.4 0.0
21/08:30pm 8.1 5.7 4.3 77 1.7 NNE 6 9 3 5 1017.2 1017.2 0.0
21/08:00pm 8.5 5.8 3.8 72 2.0 NNW 7 7 4 4 1017.0 1017.0 0.0
21/07:30pm 8.9 6.4 3.9 71 2.2 N 6 7 3 4 1016.7 1016.7 0.0
21/07:00pm 8.7 6.3 4.5 75 1.8 NNE 6 7 3 4 1016.5 1016.5 0.0
21/06:30pm 8.2 5.3 4.6 78 1.6 NE 9 11 5 6 1016.2 1016.2 0.0
21/06:00pm 8.9 6.3 4.3 73 2.0 NNE 7 9 4 5 1015.8 1015.8 0.0
21/05:30pm 10.0 7.5 4.6 69 2.4 NNE 7 11 4 6 1015.6 1015.6 0.0
21/05:00pm 10.7 8.0 3.5 61 3.2 NNE 7 11 4 6 1015.5 1015.5 0.0
21/04:30pm 11.0 7.8 3.1 58 3.4 NNE 9 13 5 7 1015.4 1015.4 0.0
21/04:00pm 11.5 8.1 4.0 60 3.3 ENE 11 15 6 8 1015.3 1015.3 0.0
21/03:30pm 11.5 8.7 2.3 53 4.0 NNE 6 11 3 6 1015.2 1015.2 0.0
21/03:00pm 11.8 8.2 3.1 55 3.8 N 11 13 6 7 1015.3 1015.3 0.0
21/02:30pm 12.5 9.7 3.2 53 4.1 NNE 7 13 4 7 1015.3 1015.3 0.0
21/02:00pm 11.6 8.7 2.6 54 3.9 NE 7 13 4 7 1015.6 1015.6 0.0
21/01:30pm 11.3 8.3 2.3 54 3.9 NNW 7 13 4 7 1015.8 1015.8 0.0
21/01:00pm 10.9 8.4 4.6 65 2.8 WSW 7 9 4 5 1016.2 1016.2 0.0
21/12:30pm 9.9 7.6 5.7 75 1.9 SW 7 13 4 7 1016.6 1016.6 0.0
21/12:00pm 8.4 6.1 5.7 83 1.2 SW 7 11 4 6 1017.2 1017.2 0.0
21/11:30am 9.1 5.8 4.7 74 2.0 NW 11 15 6 8 1017.5 1017.5 0.0
21/11:00am 8.4 4.8 5.0 79 1.5 NNW 13 17 7 9 1017.7 1017.7 0.0
21/10:30am 8.0 3.9 4.6 79 1.5 NW 15 20 8 11 1017.9 1017.9 0.0
21/10:00am 7.4 4.5 4.5 82 1.3 NW 9 11 5 6 1017.8 1017.8 0.0
21/09:30am 6.2 2.8 3.9 85 1.0 NW 11 15 6 8 1017.9 1017.9 0.0
21/09:00am 5.5 2.0 3.5 87 0.8 NW 11 13 6 7 1017.7 1017.7 0.0
21/08:30am 4.8 1.2 3.1 89 0.7 NW 11 15 6 8 1017.6 1017.6 0.0
21/08:00am 4.2 1.0 3.0 92 0.5 NNW 9 11 5 6 1017.7 1017.7 0.0
21/07:30am 3.7 0.8 2.8 94 0.4 N 7 9 4 5 1017.5 1017.5 0.0
21/07:00am 3.6 0.8 3.0 96 0.2 N 7 9 4 5 1017.3 1017.3 0.0
21/06:30am 3.7 1.1 3.1 96 0.2 WNW 6 7 3 4 1017.4 1017.4 0.0
21/06:00am 3.4 0.8 3.0 97 0.2 NW 6 7 3 4 1017.1 1017.1 0.0
21/05:30am 3.5 0.6 2.8 95 0.3 W 7 11 4 6 1017.0 1017.0 0.0
21/05:00am 3.2 -0.5 2.6 96 0.2 NNW 11 11 6 6 1017.2 1017.2 0.0
21/04:30am 3.1 0.2 2.4 95 0.3 NW 7 7 4 4 1017.1 1017.1 0.0
21/04:00am 3.2 0.3 2.5 95 0.3 NNW 7 9 4 5 1017.4 1017.4 0.0
21/03:30am 3.0 -0.7 2.4 96 0.2 NW 11 11 6 6 1017.7 1017.7 0.0
21/03:00am 3.0 1.1 2.7 98 0.1 NW 2 9 1 5 1017.9 1017.9 0.0
21/02:30am 2.7 0.0 2.4 98 0.1 NW 6 7 3 4 1018.1 1018.1 0.0
21/02:00am 2.1 -0.9 1.7 97 0.2 WNW 7 9 4 5 1018.5 1018.5 0.0
21/01:30am 2.6 -0.2 2.2 97 0.2 SSW 6 7 3 4 1018.6 1018.6 0.0
21/01:00am 2.8 0.4 2.4 97 0.2 W 4 7 2 4 1019.2 1019.2 0.0
21/12:30am 2.8 1.2 2.2 96 0.2 CALM 0 0 0 0 1019.3 1019.3 0.0
21/12:00am 2.8 1.2 2.2 96 0.2 CALM 0 0 0 0 1019.2 1019.2 0.0
 
Date/Time
EST
Temp
°C
App
Temp
°C
Dew
Point
°C
Rel
Hum
%
Delta-T
°C
Wind Press
QNH
hPa
Press
MSL
hPa
Rain since
9am
mm
Dir  Spd
km/h
Gust
km/h
Spd
kts
Gust
kts
20/11:30pm 2.8 1.2 2.2 96 0.2 CALM 0 0 0 0 1019.6 1019.6 0.0
20/11:00pm 2.6 0.9 1.9 95 0.3 CALM 0 0 0 0 1020.0 1020.0 0.0
20/10:30pm 2.8 1.1 2.1 95 0.3 CALM 0 0 0 0 1020.5 1020.5 0.0
20/10:00pm 2.7 1.0 1.8 94 0.3 CALM 0 0 0 0 1020.6 1020.6 0.0
20/09:30pm 3.6 2.0 2.3 91 0.5 CALM 0 0 0 0 1020.5 1020.5 0.0
20/09:00pm 4.4 1.6 3.1 91 0.5 NE 7 7 4 4 1020.6 1020.6 0.0
20/08:30pm 5.3 2.7 3.3 87 0.8 NNE 6 7 3 4 1020.7 1020.7 0.0

Other Formats:

Comma delimited format used in spreadsheet applications
http://www.bom.gov.au/fwo/IDV60801/IDV60801.94907.axf

JavaScript Object Notation format (JSON) in row-major order
http://www.bom.gov.au/fwo/IDV60801/IDV60801.94907.json